This is the latest recevied weather packets stored in our database for station/object VK5TRM-13. If no packets are shown the sender has not sent any weather packets the latest 10 day(s).
| Time | Temp. | Humidity | Pressure | Rain* | Wind** | Luminosity | Snow |
|---|---|---|---|---|---|---|---|
| 1777405505 | 8.89° C | 83% | 1025.2 hPa | 0 mm | - | - | - |
| 1777404605 | 9.44° C | 82% | 1025 hPa | 0 mm | - | - | - |
| 1777403705 | 9.44° C | 82% | 1025 hPa | 0 mm | - | - | - |
| 1777402805 | 10° C | 82% | 1024.7 hPa | 0 mm | - | - | - |
| 1777401905 | 10° C | 82% | 1024.7 hPa | 0 mm | - | - | - |
| 1777401004 | 10.56° C | 80% | 1024.5 hPa | 0 mm | - | - | - |
| 1777400104 | 10.56° C | 80% | 1024.5 hPa | 0 mm | - | - | - |
| 1777399204 | 10.56° C | 80% | 1024.5 hPa | 0 mm | - | - | - |
| 1777398304 | 10.56° C | 80% | 1024.5 hPa | 0 mm | - | - | - |
| 1777397404 | 10.56° C | 80% | 1024.4 hPa | 0 mm | - | - | - |
| 1777396504 | 10.56° C | 80% | 1024.4 hPa | 0 mm | - | - | - |
| 1777395605 | 11.11° C | 80% | 1024.5 hPa | 0 mm | - | - | - |
| 1777394705 | 11.11° C | 80% | 1024.5 hPa | 0 mm | - | - | - |
| 1777393805 | 11.67° C | 79% | 1024.4 hPa | 0 mm | - | - | - |
| 1777392905 | 11.67° C | 79% | 1024.4 hPa | 0 mm | - | - | - |
| 1777392004 | 11.67° C | 75% | 1024.3 hPa | 0 mm | - | - | - |
| 1777391104 | 11.67° C | 75% | 1024.3 hPa | 0 mm | - | - | - |
| 1777390204 | 11.67° C | 74% | 1024.4 hPa | 0 mm | - | - | - |
| 1777389305 | 11.67° C | 74% | 1024.4 hPa | 0 mm | - | - | - |
| 1777388405 | 12.78° C | 75% | 1024.5 hPa | 0 mm | - | - | - |
| 1777387505 | 12.78° C | 75% | 1024.5 hPa | 0 mm | - | - | - |
| 1777386605 | 11.67° C | 75% | 1024.5 hPa | 0 mm | - | - | - |
| 1777385705 | 11.67° C | 75% | 1024.5 hPa | 0 mm | - | - | - |
| 1777384804 | 12.22° C | 79% | 1024.8 hPa | 0 mm | - | - | - |
| 1777383905 | 12.22° C | 79% | 1024.8 hPa | 0 mm | - | - | - |
* Rain since midnight (hover to see other rain measurements)
** Current wind speed in m/s (hover to see current wind gust speed)